Time;durP1;ratioP1;P1;durP2;ratioP2;P2;SDS_P1;SDS_P2;PMS_P1;PMS_P2;Temp;Humidity;BMP_temperature;BMP_pressure;BME280_temperature;BME280_humidity;BME280_pressure;Samples;Min_cycle;Max_cycle;Signal;HPM_P1;HPM_P2
2023/04/06 00:00:12;;;;;;;13.18;6.60;;;;;;;2.14;59.30;99987.84;4365686;32;20448;-86
2023/04/06 00:02:37;;;;;;;11.48;4.70;;;;;;;2.18;59.30;99987.84;4365433;32;20133;-85
2023/04/06 00:05:03;;;;;;;8.77;4.62;;;;;;;2.07;59.30;99985.19;4378048;32;20118;-85
2023/04/06 00:07:29;;;;;;;10.23;4.12;;;;;;;1.98;59.29;99986.00;4377904;32;20453;-86
2023/04/06 00:09:55;;;;;;;8.77;4.30;;;;;;;2.01;59.30;99980.91;4365913;32;20145;-85
2023/04/06 00:12:20;;;;;;;9.25;4.53;;;;;;;1.95;59.29;99980.00;4377783;32;20138;-85
2023/04/06 00:14:46;;;;;;;10.02;4.30;;;;;;;1.97;59.29;99986.88;4365575;32;20099;-85
2023/04/06 00:17:11;;;;;;;10.73;4.22;;;;;;;1.80;59.28;99991.88;4377745;32;20114;-85
2023/04/06 00:19:36;;;;;;;12.57;4.82;;;;;;;1.94;59.29;99981.72;4365592;32;20130;-85
2023/04/06 00:22:02;;;;;;;8.98;4.05;;;;;;;1.90;59.28;99985.13;4377778;32;20166;-86
2023/04/06 00:24:27;;;;;;;12.68;4.47;;;;;;;2.01;59.29;99980.91;4378161;32;20094;-86
2023/04/06 00:26:53;;;;;;;11.18;4.60;;;;;;;1.96;59.29;99977.44;4365272;32;20141;-86
2023/04/06 00:29:19;;;;;;;8.52;4.60;;;;;;;1.86;59.29;99975.66;4377432;32;21280;-85
2023/04/06 00:31:45;;;;;;;9.90;4.43;;;;;;;1.92;59.30;99983.41;4374440;32;35167;-85
2023/04/06 00:34:10;;;;;;;10.13;4.28;;;;;;;1.83;59.28;99970.50;4362385;32;22864;-85
2023/04/06 00:36:36;;;;;;;7.78;3.87;;;;;;;1.77;59.29;99965.34;4361605;32;20192;-86
2023/04/06 00:39:01;;;;;;;8.88;4.32;;;;;;;1.67;59.28;99968.69;4362895;32;20150;-86
2023/04/06 00:41:26;;;;;;;11.52;4.20;;;;;;;1.80;59.29;99958.50;4362718;32;20467;-85
2023/04/06 00:43:53;;;;;;;9.25;3.90;;;;;;;1.92;59.30;99956.88;4375169;32;20114;-86
2023/04/06 00:46:19;;;;;;;7.57;3.58;;;;;;;1.59;59.27;99963.47;4375529;32;20443;-85
2023/04/06 00:48:44;;;;;;;8.57;4.18;;;;;;;1.77;59.29;99960.19;4362668;32;20174;-86
2023/04/06 00:51:09;;;;;;;9.50;3.78;;;;;;;1.63;59.26;99961.78;4375227;32;20110;-85
2023/04/06 00:53:35;;;;;;;7.82;4.00;;;;;;;1.66;59.28;99959.28;4375099;32;20204;-86
2023/04/06 00:56:00;;;;;;;8.75;3.78;;;;;;;1.56;59.27;99958.34;4362486;32;20395;-86
2023/04/06 00:58:25;;;;;;;9.80;4.43;;;;;;;1.36;59.26;99957.31;4374750;32;20161;-85
2023/04/06 01:00:51;;;;;;;12.45;4.72;;;;;;;1.39;59.26;99953.06;4361917;32;30257;-85
2023/04/06 01:03:16;;;;;;;10.25;3.62;;;;;;;1.25;59.25;99964.06;4375080;32;20121;-85
2023/04/06 01:05:42;;;;;;;9.45;3.45;;;;;;;1.28;59.26;99959.81;4362404;32;20122;-84
2023/04/06 01:08:07;;;;;;;6.20;3.60;;;;;;;1.31;59.25;99956.41;4349930;32;20177;-85
2023/04/06 01:10:33;;;;;;;10.15;4.75;;;;;;;1.18;59.25;99960.56;4374313;32;20827;-85
2023/04/06 01:12:58;;;;;;;8.40;4.05;;;;;;;1.08;59.24;99961.34;4374316;32;25344;-85
2023/04/06 01:15:23;;;;;;;8.43;4.90;;;;;;;0.99;59.23;99963.81;4373926;32;33839;-86
2023/04/06 01:17:49;;;;;;;11.80;4.15;;;;;;;0.93;59.23;99962.03;4362059;32;20769;-84
2023/04/06 01:20:15;;;;;;;9.48;4.30;;;;;;;1.02;59.23;99971.53;4374609;32;20113;-86
2023/04/06 01:22:40;;;;;;;9.80;4.43;;;;;;;1.23;59.25;99964.06;4371546;32;90386;-85
2023/04/06 01:25:06;;;;;;;9.93;4.50;;;;;;;1.05;59.24;99963.87;4374206;32;20147;-85
2023/04/06 01:27:32;;;;;;;8.23;3.85;;;;;;;1.19;59.25;99962.31;4375964;32;20102;-85
2023/04/06 01:29:57;;;;;;;10.82;3.72;;;;;;;1.19;59.25;99963.19;4362055;32;20707;-85
2023/04/06 01:32:22;;;;;;;6.37;3.45;;;;;;;1.15;59.24;99961.41;4374175;32;20111;-85
2023/04/06 01:34:48;;;;;;;11.55;4.50;;;;;;;1.08;59.24;99964.75;4375523;32;20205;-85
2023/04/06 01:37:13;;;;;;;8.23;3.92;;;;;;;1.19;59.25;99970.00;4361833;32;20190;-85
2023/04/06 01:39:38;;;;;;;8.00;3.78;;;;;;;0.76;59.22;99963.59;4348396;32;28766;-85
2023/04/06 01:42:04;;;;;;;11.57;4.40;;;;;;;1.01;59.23;99960.44;4374365;32;20126;-85
2023/04/06 01:44:30;;;;;;;12.48;4.25;;;;;;;0.98;59.24;99945.03;4361754;32;20118;-85
2023/04/06 01:46:56;;;;;;;7.93;4.28;;;;;;;0.98;59.24;99955.28;4374562;32;20709;-85
2023/04/06 01:49:22;;;;;;;9.65;4.47;;;;;;;0.77;59.22;99957.63;4377661;32;20109;-84
2023/04/06 01:51:47;;;;;;;12.65;4.03;;;;;;;0.90;59.23;99947.50;4378075;32;20074;-85
2023/04/06 01:54:12;;;;;;;9.88;4.40;;;;;;;1.01;59.23;99950.19;4376457;32;20201;-85
2023/04/06 01:56:38;;;;;;;12.00;4.95;;;;;;;0.75;59.22;99949.91;4364291;32;20492;-86
2023/04/06 01:59:03;;;;;;;10.95;4.70;;;;;;;0.82;59.23;99946.56;4376142;32;20106;-85
2023/04/06 02:01:29;;;;;;;10.05;4.47;;;;;;;0.74;59.21;99949.91;4351962;32;20416;-85
2023/04/06 02:03:54;;;;;;;8.02;4.30;;;;;;;0.60;59.22;99947.19;4377989;32;20090;-85
2023/04/06 02:06:20;;;;;;;9.40;4.35;;;;;;;0.79;59.22;99949.09;4364267;32;20146;-85
2023/04/06 02:08:45;;;;;;;13.52;4.30;;;;;;;0.84;59.22;99947.44;4376322;32;20198;-85
2023/04/06 02:11:11;;;;;;;11.90;4.57;;;;;;;0.79;59.21;99938.84;4376491;32;20075;-85
2023/04/06 02:13:36;;;;;;;11.73;5.00;;;;;;;0.96;59.23;99943.31;4363433;32;22273;-86
2023/04/06 02:16:02;;;;;;;10.55;4.85;;;;;;;0.77;59.22;99940.53;4375990;32;23148;-85
2023/04/06 02:18:29;;;;;;;7.65;3.90;;;;;;;0.91;59.23;99932.97;4363898;32;20490;-85
2023/04/06 02:20:55;;;;;;;8.90;4.87;;;;;;;0.67;59.22;99933.59;4364316;32;20121;-86
2023/04/06 02:23:20;;;;;;;9.10;4.10;;;;;;;0.81;59.22;99926.91;4376478;32;20558;-86
2023/04/06 02:25:46;;;;;;;12.20;5.05;;;;;;;0.81;59.22;99926.91;4363758;32;22564;-86
2023/04/06 02:28:11;;;;;;;9.50;4.50;;;;;;;0.87;59.22;99931.22;4377758;32;20145;-86
2023/04/06 02:30:37;;;;;;;10.50;5.25;;;;;;;0.88;59.22;99930.38;4376325;32;20141;-87
2023/04/06 02:33:02;;;;;;;10.02;4.45;;;;;;;0.87;59.22;99924.41;4388107;32;20121;-86
2023/04/06 02:35:30;;;;;;;10.80;5.25;;;;;;;0.81;59.22;99914.09;4366446;32;20110;-86
2023/04/06 02:37:56;;;;;;;10.40;5.65;;;;;;;0.84;59.23;99920.97;4366525;32;20483;-86
2023/04/06 02:40:21;;;;;;;12.30;5.28;;;;;;;0.91;59.23;99915.03;4366350;32;20121;-86
2023/04/06 02:42:47;;;;;;;15.45;5.15;;;;;;;0.80;59.22;99916.66;4366350;32;20150;-86
2023/04/06 02:45:12;;;;;;;13.45;5.32;;;;;;;0.92;59.23;99914.19;4366243;32;20168;-85
2023/04/06 02:47:38;;;;;;;12.18;5.70;;;;;;;0.79;59.22;99917.50;4366320;32;20079;-85
2023/04/06 02:50:03;;;;;;;12.88;5.22;;;;;;;0.78;59.22;99916.63;4364832;32;30635;-86
2023/04/06 02:52:29;;;;;;;11.70;5.28;;;;;;;0.64;59.21;99913.06;4366358;32;20455;-85
2023/04/06 02:54:54;;;;;;;9.60;5.22;;;;;;;0.77;59.22;99909.78;4351389;32;20140;-86
2023/04/06 02:57:20;;;;;;;12.45;5.03;;;;;;;0.86;59.22;99909.00;4386848;32;20154;-86
2023/04/06 02:59:45;;;;;;;11.88;5.78;;;;;;;0.85;59.23;99915.84;4366003;32;20094;-85
2023/04/06 03:02:10;;;;;;;12.10;6.10;;;;;;;1.11;59.24;99910.09;4353648;32;20170;-85
2023/04/06 03:04:36;;;;;;;11.20;6.00;;;;;;;0.59;59.21;99913.03;4378773;32;20444;-85
2023/04/06 03:07:01;;;;;;;14.65;5.75;;;;;;;0.77;59.22;99906.38;4378348;32;22853;-86
2023/04/06 03:09:27;;;;;;;14.20;5.40;;;;;;;0.74;59.21;99911.47;4392414;32;20126;-84
2023/04/06 03:11:52;;;;;;;10.88;5.78;;;;;;;0.66;59.22;99908.81;4366187;32;20444;-84
2023/04/06 03:14:21;;;;;;;14.68;5.68;;;;;;;0.78;59.22;99911.50;4366216;32;20110;-84
2023/04/06 03:16:47;;;;;;;10.02;5.15;;;;;;;0.68;59.22;99906.25;4379147;32;20094;-85
2023/04/06 03:19:13;;;;;;;12.50;5.75;;;;;;;0.67;59.22;99907.09;4378865;32;20091;-85
2023/04/06 03:21:38;;;;;;;13.57;5.62;;;;;;;0.45;59.20;99911.13;4366797;32;20448;-84
2023/04/06 03:24:04;;;;;;;11.93;5.60;;;;;;;0.51;59.20;99916.34;4380056;32;20138;-85
2023/04/06 03:26:30;;;;;;;8.38;5.00;;;;;;;0.47;59.20;99912.88;4379821;32;20086;-86
2023/04/06 03:28:55;;;;;;;12.35;4.93;;;;;;;0.58;59.21;99913.88;4379809;32;20145;-86
2023/04/06 03:31:21;;;;;;;12.05;5.45;;;;;;;0.42;59.20;99914.53;4380075;32;20093;-85
2023/04/06 03:33:46;;;;;;;11.10;5.20;;;;;;;0.22;59.18;99916.84;4379760;32;20149;-85
2023/04/06 03:36:11;;;;;;;10.43;5.75;;;;;;;0.14;59.18;99913.34;4379552;32;20086;-85
2023/04/06 03:38:37;;;;;;;9.98;5.70;;;;;;;0.27;59.19;99914.38;4379847;32;20138;-85
2023/04/06 03:41:02;;;;;;;13.85;5.53;;;;;;;0.18;59.19;99912.53;4379703;32;20162;-86
2023/04/06 03:43:27;;;;;;;12.32;5.65;;;;;;;-0.01;59.17;99918.25;4379837;32;20130;-86
2023/04/06 03:45:53;;;;;;;12.02;5.60;;;;;;;0.24;59.19;99919.47;4393608;32;20099;-86
2023/04/06 03:48:18;;;;;;;10.32;5.75;;;;;;;0.22;59.18;99919.41;4379589;32;20177;-86
2023/04/06 03:50:44;;;;;;;10.20;5.57;;;;;;;0.26;59.19;99913.50;4379407;32;20557;-86
2023/04/06 03:53:10;;;;;;;12.80;5.57;;;;;;;0.29;59.19;99915.25;4393565;32;20110;-85
2023/04/06 03:55:36;;;;;;;12.57;5.85;;;;;;;0.41;59.20;99917.06;4393462;32;20103;-85
2023/04/06 03:58:02;;;;;;;13.68;6.50;;;;;;;0.41;59.20;99915.38;4379691;32;20117;-86
2023/04/06 04:00:27;;;;;;;10.32;5.82;;;;;;;0.22;59.18;99916.84;4379602;32;20149;-84
2023/04/06 04:02:52;;;;;;;19.92;6.40;;;;;;;0.38;59.20;99914.47;4378894;32;33992;-83
2023/04/06 04:05:18;;;;;;;13.48;6.40;;;;;;;0.34;59.20;99911.03;4379313;32;20453;-85
2023/04/06 04:07:43;;;;;;;13.38;5.95;;;;;;;0.53;59.21;99912.97;4379586;32;20155;-85
2023/04/06 04:10:09;;;;;;;13.98;6.57;;;;;;;0.32;59.20;99905.03;4379121;32;20485;-83
2023/04/06 04:12:35;;;;;;;12.07;6.37;;;;;;;0.30;59.19;99911.84;4379443;32;20099;-85
2023/04/06 04:15:00;;;;;;;16.52;6.62;;;;;;;0.20;59.18;99907.44;4379453;32;20153;-85
2023/04/06 04:17:25;;;;;;;12.55;5.97;;;;;;;0.22;59.18;99906.59;4379186;32;20242;-85
2023/04/06 04:19:51;;;;;;;12.82;6.20;;;;;;;0.22;59.18;99906.59;4379003;32;20114;-85
2023/04/06 04:22:16;;;;;;;15.27;6.55;;;;;;;0.24;59.19;99906.66;4378754;32;20467;-84
2023/04/06 04:24:41;;;;;;;13.82;5.85;;;;;;;0.26;59.19;99903.28;4393249;32;20137;-83
2023/04/06 04:27:07;;;;;;;10.10;5.72;;;;;;;0.26;59.19;99904.97;4366619;32;26431;-83
2023/04/06 04:29:32;;;;;;;14.27;6.78;;;;;;;0.21;59.18;99904.03;4378826;32;20094;-84
2023/04/06 04:31:58;;;;;;;11.38;5.93;;;;;;;0.22;59.18;99909.16;4376344;32;20164;-84
2023/04/06 04:34:26;;;;;;;14.90;6.25;;;;;;;0.10;59.18;99906.47;4376301;32;20135;-85
2023/04/06 04:36:55;;;;;;;12.90;6.00;;;;;;;0.35;59.19;99907.63;4376652;32;20436;-84
2023/04/06 04:39:20;;;;;;;16.48;7.00;;;;;;;0.44;59.19;99904.31;4376428;32;20129;-85
2023/04/06 04:41:46;;;;;;;15.95;6.15;;;;;;;0.36;59.19;99899.09;4376834;32;20122;-85
2023/04/06 04:44:11;;;;;;;11.05;5.90;;;;;;;0.23;59.19;99908.31;4376605;32;20086;-84
2023/04/06 04:46:37;;;;;;;21.73;6.75;;;;;;;0.51;59.20;99906.09;4376385;32;20124;-84
2023/04/06 04:49:02;;;;;;;19.92;6.28;;;;;;;0.75;59.22;99902.94;4376300;32;20138;-84
2023/04/06 04:51:27;;;;;;;10.40;6.18;;;;;;;0.61;59.21;99903.66;4376431;32;20154;-85
2023/04/06 04:53:53;;;;;;;13.95;6.60;;;;;;;0.47;59.20;99904.34;4375893;32;20126;-85
2023/04/06 04:56:18;;;;;;;13.75;5.97;;;;;;;0.40;59.20;99893.16;4377509;32;20344;-85
2023/04/06 04:58:44;;;;;;;17.40;7.55;;;;;;;0.64;59.21;99884.03;4376212;32;20095;-83
2023/04/06 05:01:09;;;;;;;13.02;6.45;;;;;;;0.76;59.22;99884.16;4377444;32;20251;-84
2023/04/06 05:03:35;;;;;;;13.57;7.15;;;;;;;0.97;59.23;99876.69;4376285;32;20104;-84
2023/04/06 05:06:01;;;;;;;17.02;7.45;;;;;;;1.03;59.23;99881.00;4376257;32;20112;-85
2023/04/06 05:08:26;;;;;;;15.13;6.78;;;;;;;0.97;59.24;99881.81;4363640;32;20099;-84
2023/04/06 05:10:52;;;;;;;11.65;6.18;;;;;;;1.21;59.24;99886.28;4375580;32;22948;-84
2023/04/06 05:13:17;;;;;;;15.82;7.20;;;;;;;1.10;59.23;99880.19;4375991;32;20460;-85
2023/04/06 05:15:43;;;;;;;15.65;7.78;;;;;;;1.33;59.26;99883.78;4376180;32;20126;-85
2023/04/06 05:18:08;;;;;;;21.75;9.50;;;;;;;1.60;59.27;99887.37;4375260;32;25736;-84
2023/04/06 05:20:34;;;;;;;29.42;12.27;;;;;;;1.62;59.26;99885.69;4375797;32;20141;-84
2023/04/06 05:22:59;;;;;;;30.23;11.63;;;;;;;1.70;59.27;99884.91;4363953;32;20086;-83
2023/04/06 05:25:25;;;;;;;23.77;10.63;;;;;;;1.94;59.29;99871.34;4379141;32;20078;-84
2023/04/06 05:27:50;;;;;;;19.95;8.20;;;;;;;1.93;59.29;99867.06;4365139;32;20154;-85
2023/04/06 05:30:16;;;;;;;14.30;6.93;;;;;;;2.15;59.30;99865.44;4377843;32;20099;-85
2023/04/06 05:32:43;;;;;;;19.17;8.43;;;;;;;2.26;59.31;99850.06;4377470;32;20542;-83
2023/04/06 05:35:08;;;;;;;19.42;7.25;;;;;;;2.42;59.32;99850.09;4377889;32;20121;-85
2023/04/06 05:37:34;;;;;;;15.93;7.05;;;;;;;2.46;59.32;99846.69;4377736;32;20115;-84
2023/04/06 05:40:00;;;;;;;12.05;6.68;;;;;;;2.61;59.33;99840.72;4378167;32;20126;-85
2023/04/06 05:42:26;;;;;;;13.32;6.68;;;;;;;2.71;59.33;99847.59;4377916;32;20428;-85
2023/04/06 05:44:52;;;;;;;14.07;7.50;;;;;;;2.77;59.34;99842.44;4378022;32;20122;-84
2023/04/06 05:47:17;;;;;;;13.95;6.40;;;;;;;2.75;59.34;99845.88;4377446;32;20615;-85
2023/04/06 05:49:43;;;;;;;16.62;7.00;;;;;;;2.94;59.35;99850.16;4377585;32;20499;-85
2023/04/06 05:52:09;;;;;;;15.15;7.00;;;;;;;2.68;59.33;99847.59;4378927;32;20132;-85
2023/04/06 05:54:35;;;;;;;13.32;6.20;;;;;;;2.75;59.33;99841.59;4378004;32;20154;-85
2023/04/06 05:57:02;;;;;;;11.65;6.55;;;;;;;2.83;59.35;99845.84;4378216;32;20123;-86
2023/04/06 05:59:27;;;;;;;16.67;6.60;;;;;;;2.86;59.34;99838.19;4378093;32;20162;-85
2023/04/06 06:01:52;;;;;;;19.77;7.60;;;;;;;2.73;59.34;99830.44;4377972;32;20145;-85
2023/04/06 06:04:18;;;;;;;13.98;7.45;;;;;;;2.84;59.34;99832.16;4377682;32;20134;-85
2023/04/06 06:06:43;;;;;;;16.62;7.12;;;;;;;2.86;59.34;99830.47;4377242;32;33658;-85
2023/04/06 06:09:08;;;;;;;13.60;7.72;;;;;;;3.12;59.36;99827.88;4378362;32;35523;-85
2023/04/06 06:11:34;;;;;;;14.55;7.70;;;;;;;3.09;59.36;99828.75;4378009;32;20149;-85
2023/04/06 06:13:59;;;;;;;17.73;7.93;;;;;;;3.17;59.36;99828.75;4377871;32;20124;-85
2023/04/06 06:16:25;;;;;;;15.63;6.90;;;;;;;3.23;59.37;99828.72;4377947;32;20149;-85
2023/04/06 06:18:50;;;;;;;15.02;6.55;;;;;;;3.06;59.35;99819.28;4378000;32;20138;-85
2023/04/06 06:21:16;;;;;;;21.15;8.50;;;;;;;3.32;59.37;99811.56;4365684;32;20117;-85
2023/04/06 06:23:42;;;;;;;14.68;8.38;;;;;;;3.40;59.38;99811.56;4377935;32;20497;-85
2023/04/06 06:26:08;;;;;;;15.35;7.07;;;;;;;3.57;59.38;99808.94;4377878;32;20110;-85
2023/04/06 06:28:33;;;;;;;17.92;7.12;;;;;;;3.63;59.39;99804.63;4365147;32;20200;-85
2023/04/06 06:30:59;;;;;;;14.93;7.07;;;;;;;3.75;59.38;99801.13;4377379;32;20464;-85
2023/04/06 06:33:25;;;;;;;14.40;7.18;;;;;;;3.63;59.39;99804.63;4375974;32;20134;-85
2023/04/06 06:35:51;;;;;;;15.88;7.37;;;;;;;3.74;59.39;99798.56;4376834;32;20103;-85
2023/04/06 06:38:17;;;;;;;18.35;7.75;;;;;;;3.79;59.39;99802.87;4377788;32;20107;-86
2023/04/06 06:40:42;;;;;;;15.48;6.62;;;;;;;3.88;59.40;99807.12;4377682;32;20479;-85
2023/04/06 06:43:08;;;;;;;11.75;7.22;;;;;;;4.13;59.42;99793.25;4377712;32;20479;-86
2023/04/06 06:45:33;;;;;;;16.70;7.82;;;;;;;4.33;59.42;99790.56;4377585;32;20153;-86
2023/04/06 06:47:58;;;;;;;17.00;7.68;;;;;;;4.54;59.44;99798.16;4376870;32;37103;-85
2023/04/06 06:50:24;;;;;;;14.93;7.28;;;;;;;4.47;59.43;99793.91;4377226;32;21693;-85
2023/04/06 06:52:49;;;;;;;13.93;6.75;;;;;;;4.58;59.44;99789.53;4365151;32;20102;-85
2023/04/06 06:55:15;;;;;;;13.88;6.87;;;;;;;4.68;59.45;99780.00;4377102;32;24367;-86
2023/04/06 06:57:42;;;;;;;15.80;7.45;;;;;;;4.86;59.45;99784.16;4377452;32;20473;-86
2023/04/06 07:00:08;;;;;;;18.45;7.22;;;;;;;5.00;59.46;99786.63;4377664;32;20082;-86
2023/04/06 07:02:35;;;;;;;18.05;7.03;;;;;;;4.79;59.46;99782.50;4377688;32;20098;-86
2023/04/06 07:05:01;;;;;;;18.23;6.68;;;;;;;5.00;59.46;99777.19;4377736;32;20103;-85
2023/04/06 07:07:26;;;;;;;17.55;7.12;;;;;;;5.06;59.47;99773.69;4377470;32;20384;-85
2023/04/06 07:09:52;;;;;;;14.45;7.47;;;;;;;5.21;59.47;99776.97;4377578;32;20110;-86
2023/04/06 07:12:18;;;;;;;11.45;6.07;;;;;;;5.33;59.49;99777.72;4377545;32;20094;-86
2023/04/06 07:14:43;;;;;;;14.52;7.93;;;;;;;5.47;59.50;99771.53;4364804;32;20161;-86
2023/04/06 07:17:10;;;;;;;16.98;7.80;;;;;;;5.57;59.50;99769.69;4377580;32;20146;-86
2023/04/06 07:19:35;;;;;;;14.63;6.03;;;;;;;5.70;59.51;99762.69;4377570;32;20086;-86
2023/04/06 07:22:02;;;;;;;12.65;6.15;;;;;;;5.72;59.51;99763.50;4377375;32;20129;-86
2023/04/06 07:24:27;;;;;;;16.27;6.60;;;;;;;5.75;59.52;99766.91;4377707;32;20132;-85
2023/04/06 07:26:52;;;;;;;16.45;6.82;;;;;;;5.79;59.51;99772.87;4377511;32;20153;-86
2023/04/06 07:29:18;;;;;;;13.65;6.50;;;;;;;5.91;59.53;99766.72;4378742;32;20129;-86
2023/04/06 07:31:43;;;;;;;13.15;6.37;;;;;;;5.99;59.52;99767.50;4377371;32;34797;-85
2023/04/06 07:34:09;;;;;;;11.43;5.85;;;;;;;6.20;59.54;99767.22;4379423;32;23648;-86
2023/04/06 07:36:34;;;;;;;20.25;7.75;;;;;;;6.13;59.53;99766.41;4379970;32;20150;-86
2023/04/06 07:38:59;;;;;;;12.68;6.28;;;;;;;6.02;59.52;99759.72;4379360;32;22016;-85
2023/04/06 07:41:25;;;;;;;14.02;6.55;;;;;;;6.01;59.52;99764.03;4379515;32;21241;-85
2023/04/06 07:43:50;;;;;;;14.00;6.18;;;;;;;5.93;59.52;99760.69;4379930;32;20507;-86
2023/04/06 07:46:16;;;;;;;15.85;6.47;;;;;;;6.10;59.53;99760.44;4379335;32;20455;-86
2023/04/06 07:48:41;;;;;;;17.42;6.37;;;;;;;6.39;59.54;99745.41;4379800;32;20137;-85
2023/04/06 07:51:07;;;;;;;12.20;5.07;;;;;;;6.15;59.53;99756.06;4380034;32;20110;-85
2023/04/06 07:53:32;;;;;;;13.13;6.45;;;;;;;6.21;59.54;99761.16;4379771;32;20103;-86
2023/04/06 07:55:58;;;;;;;13.50;6.32;;;;;;;6.13;59.53;99757.81;4379734;32;20435;-85
2023/04/06 07:58:24;;;;;;;15.95;6.62;;;;;;;6.19;59.52;99755.16;4367335;32;20184;-85
2023/04/06 08:00:49;;;;;;;10.88;5.32;;;;;;;6.30;59.53;99753.28;4379723;32;20173;-85
2023/04/06 08:03:16;;;;;;;14.63;6.03;;;;;;;6.29;59.54;99754.16;4379252;32;33571;-85
2023/04/06 08:05:41;;;;;;;14.30;6.12;;;;;;;6.34;59.54;99754.94;4379807;32;20132;-86
2023/04/06 08:08:07;;;;;;;13.70;6.87;;;;;;;6.38;59.54;99751.41;4379559;32;20075;-85
2023/04/06 08:10:34;;;;;;;11.38;5.95;;;;;;;6.64;59.55;99745.00;4379604;32;20110;-85
2023/04/06 08:12:59;;;;;;;10.80;5.10;;;;;;;6.65;59.57;99751.91;4379691;32;20172;-86
2023/04/06 08:15:25;;;;;;;17.12;6.37;;;;;;;6.78;59.56;99749.06;4379479;32;20107;-85
2023/04/06 08:17:50;;;;;;;14.00;6.07;;;;;;;6.87;59.58;99737.72;4379063;32;20126;-86
2023/04/06 08:20:16;;;;;;;14.80;6.70;;;;;;;7.05;59.59;99739.97;4379573;32;20161;-86
2023/04/06 08:22:41;;;;;;;11.12;6.10;;;;;;;7.32;59.60;99751.53;4379322;32;20486;-85
2023/04/06 08:25:07;;;;;;;17.48;7.07;;;;;;;7.01;59.57;99753.84;4378946;32;23954;-86
2023/04/06 08:27:32;;;;;;;20.45;7.50;;;;;;;6.95;59.58;99743.59;4379134;32;20108;-85
2023/04/06 08:29:57;;;;;;;14.55;7.03;;;;;;;7.17;59.60;99735.47;4379354;32;20094;-85
2023/04/06 08:32:23;;;;;;;12.68;6.43;;;;;;;7.02;59.59;99737.44;4378717;32;26962;-86
2023/04/06 08:34:48;;;;;;;18.55;7.12;;;;;;;7.14;59.59;99733.78;4379303;32;20149;-85
2023/04/06 08:37:13;;;;;;;18.73;7.12;;;;;;;7.26;59.59;99727.50;4378794;32;25217;-85
2023/04/06 08:39:39;;;;;;;13.70;6.43;;;;;;;7.35;59.60;99735.13;4379130;32;20086;-86
2023/04/06 08:42:05;;;;;;;12.95;7.03;;;;;;;7.55;59.61;99727.78;4378356;32;34123;-85
2023/04/06 08:44:32;;;;;;;13.75;5.95;;;;;;;7.64;59.62;99721.59;4379144;32;20379;-86
2023/04/06 08:46:57;;;;;;;12.95;6.37;;;;;;;7.75;59.62;99703.22;4366917;32;20109;-85
2023/04/06 08:49:22;;;;;;;13.15;5.90;;;;;;;8.06;59.63;99726.75;4378762;32;21296;-85
2023/04/06 08:51:48;;;;;;;16.08;7.43;;;;;;;7.99;59.64;99700.09;4366028;32;27417;-86
2023/04/06 08:54:14;;;;;;;17.67;7.53;;;;;;;8.07;59.64;99711.16;4379137;32;20537;-85
2023/04/06 08:56:39;;;;;;;12.57;6.90;;;;;;;8.36;59.65;99697.56;4366477;32;20078;-86
2023/04/06 08:59:05;;;;;;;15.40;6.95;;;;;;;8.71;59.68;99696.69;4380639;32;20104;-86
2023/04/06 09:01:31;;;;;;;12.37;6.57;;;;;;;8.45;59.67;99702.50;4380995;32;20122;-86
2023/04/06 09:03:57;;;;;;;10.32;5.12;;;;;;;8.67;59.68;99694.19;4380445;32;22994;-86
2023/04/06 09:06:23;;;;;;;12.32;5.53;;;;;;;8.56;59.67;99690.16;4368625;32;20078;-85
2023/04/06 09:08:48;;;;;;;10.20;5.65;;;;;;;8.57;59.67;99681.47;4380731;32;20181;-85
2023/04/06 09:11:14;;;;;;;15.00;5.97;;;;;;;8.49;59.66;99685.12;4380331;32;26921;-86
2023/04/06 09:13:53;;;;;;;11.60;5.47;;;;;;;8.76;59.68;99679.28;4380892;32;20098;-85
2023/04/06 09:16:19;;;;;;;28.33;8.88;;;;;;;9.07;59.70;99683.66;4368655;32;20204;-86
2023/04/06 09:18:44;;;;;;;23.98;7.95;;;;;;;8.87;59.68;99672.03;4380788;32;20090;-85
2023/04/06 09:21:10;;;;;;;8.07;4.20;;;;;;;8.96;59.69;99676.13;4380008;32;32287;-86
2023/04/06 09:23:35;;;;;;;9.68;3.95;;;;;;;9.12;59.70;99671.38;4380898;32;20157;-86
2023/04/06 09:26:14;;;;;;;9.20;4.18;;;;;;;9.26;59.71;99666.69;4380773;32;20154;-86
2023/04/06 09:28:50;;;;;;;8.20;4.43;;;;;;;9.38;59.71;99670.66;4368417;32;20157;-86
2023/04/06 09:31:20;;;;;;;6.80;3.95;;;;;;;9.32;59.70;99661.31;4368073;32;20172;-86
2023/04/06 09:33:46;;;;;;;9.10;4.18;;;;;;;9.46;59.72;99658.28;4368716;32;20133;-86
2023/04/06 09:36:12;;;;;;;10.20;4.03;;;;;;;9.30;59.71;99663.09;4394730;32;20099;-86
2023/04/06 09:38:53;;;;;;;10.93;4.18;;;;;;;9.16;59.70;99657.41;4380925;32;20083;-86
2023/04/06 09:41:25;;;;;;;7.90;3.50;;;;;;;9.51;59.72;99657.28;4380929;32;20448;-85
2023/04/06 09:44:11;;;;;;;8.52;3.60;;;;;;;9.57;59.71;99655.41;4381063;32;20454;-86
2023/04/06 09:46:42;;;;;;;8.18;3.58;;;;;;;9.51;59.72;99651.25;4394064;32;20090;-85
2023/04/06 09:49:09;;;;;;;11.30;3.53;;;;;;;9.60;59.73;99650.09;4380558;32;20121;-85
2023/04/06 09:51:41;;;;;;;9.02;4.12;;;;;;;9.58;59.73;99655.34;4368218;32;20158;-85
2023/04/06 09:54:07;;;;;;;9.32;4.22;;;;;;;9.47;59.72;99645.28;4380655;32;20407;-85
2023/04/06 09:56:45;;;;;;;9.70;4.03;;;;;;;9.44;59.72;99644.50;4368233;32;20149;-85
2023/04/06 09:59:13;;;;;;;7.80;3.62;;;;;;;9.52;59.72;99642.53;4368387;32;20205;-85
2023/04/06 10:01:39;;;;;;;9.75;4.57;;;;;;;9.31;59.71;99643.16;4368293;32;20102;-86
2023/04/06 10:04:11;;;;;;;8.35;4.32;;;;;;;9.49;59.73;99635.69;4380508;32;20125;-87
2023/04/06 10:06:37;;;;;;;7.15;3.97;;;;;;;9.44;59.72;99642.75;4380720;32;20082;-86
2023/04/06 10:09:04;;;;;;;9.20;3.92;;;;;;;9.70;59.73;99641.13;4379886;32;20141;-86
2023/04/06 10:11:30;;;;;;;53.13;15.48;;;;;;;9.83;59.74;99642.47;4380535;32;20195;-86
2023/04/06 10:13:55;;;;;;;10.10;4.53;;;;;;;9.89;59.74;99631.88;4368029;32;20459;-86
2023/04/06 10:16:21;;;;;;;17.77;4.45;;;;;;;10.32;59.77;99640.94;4380321;32;20082;-86
2023/04/06 10:18:56;;;;;;;6.87;3.62;;;;;;;10.07;59.75;99640.84;4380249;32;20110;-86
2023/04/06 10:21:23;;;;;;;10.52;3.50;;;;;;;10.23;59.76;99626.50;4380481;32;20474;-86
2023/04/06 10:23:52;;;;;;;8.63;4.00;;;;;;;10.43;59.77;99624.09;4380418;32;20189;-86
2023/04/06 10:26:20;;;;;;;6.85;3.72;;;;;;;10.43;59.77;99620.66;4367942;32;20152;-85
2023/04/06 10:28:47;;;;;;;9.25;3.95;;;;;;;10.28;59.76;99613.34;4367804;32;20098;-86
2023/04/06 10:31:12;;;;;;;8.43;3.60;;;;;;;10.16;59.75;99614.53;4368054;32;20107;-86
2023/04/06 10:33:38;;;;;;;9.20;4.07;;;;;;;10.21;59.76;99617.03;4380195;32;20090;-86
2023/04/06 10:36:14;;;;;;;7.80;3.70;;;;;;;10.28;59.76;99616.78;4367834;32;20174;-86
2023/04/06 10:38:40;;;;;;;8.88;3.70;;;;;;;10.51;59.78;99610.81;4367970;32;20129;-85
2023/04/06 10:41:09;;;;;;;7.45;3.80;;;;;;;10.63;59.79;99594.75;4367750;32;20444;-86
2023/04/06 10:43:36;;;;;;;6.43;3.60;;;;;;;10.87;59.80;99602.63;4394061;32;20098;-85
2023/04/06 10:46:02;;;;;;;8.75;4.22;;;;;;;10.79;59.80;99604.66;4368032;32;20090;-86
2023/04/06 10:48:40;;;;;;;9.23;4.50;;;;;;;10.92;59.80;99617.19;4380239;32;20090;-86
2023/04/06 10:51:11;;;;;;;7.55;4.22;;;;;;;10.91;59.80;99592.06;4380639;32;20666;-85
2023/04/06 10:53:36;;;;;;;;;;;;;;;11.07;59.81;99597.56;4380442;32;20478;-86
2023/04/06 10:56:01;;;;;;;8.77;4.73;;;;;;;10.96;59.81;99591.91;4393775;32;19986;-85
2023/04/06 10:58:27;;;;;;;6.78;4.03;;;;;;;10.98;59.80;99595.28;4393958;32;20513;-85
2023/04/06 11:00:52;;;;;;;9.73;4.60;;;;;;;11.22;59.82;99596.16;4379618;32;24035;-85
2023/04/06 11:03:18;;;;;;;8.05;4.40;;;;;;;11.42;59.83;99582.37;4380167;32;20154;-85
2023/04/06 11:05:47;;;;;;;10.07;4.50;;;;;;;11.48;59.83;99574.31;4380116;32;20094;-86
2023/04/06 11:08:32;;;;;;;11.70;4.53;;;;;;;11.40;59.83;99573.78;4379979;32;20144;-86
2023/04/06 11:11:05;;;;;;;9.65;4.97;;;;;;;11.46;59.84;99582.19;4368306;32;20102;-86
2023/04/06 11:13:48;;;;;;;13.80;5.57;;;;;;;11.38;59.83;99579.88;4380124;32;20098;-85
2023/04/06 11:16:18;;;;;;;8.05;4.50;;;;;;;11.40;59.83;99582.44;4393970;32;20098;-86
2023/04/06 11:19:05;;;;;;;10.60;4.70;;;;;;;11.49;59.83;99576.00;4368061;32;20197;-85
2023/04/06 11:21:35;;;;;;;10.38;4.80;;;;;;;11.78;59.85;99583.56;4391858;32;20114;-86
2023/04/06 11:24:25;;;;;;;10.10;5.03;;;;;;;11.63;59.84;99577.19;4393818;32;20423;-86
2023/04/06 11:26:54;;;;;;;11.25;6.07;;;;;;;11.52;59.83;99570.69;4392307;32;20102;-85
2023/04/06 11:29:27;;;;;;;10.30;5.03;;;;;;;11.72;59.85;99575.97;4367896;32;20121;-85